createdAt,value
2022-09-10T00:00:23.212Z,17.67
2022-09-10T00:03:10.135Z,20.52
2022-09-10T00:05:56.155Z,18.35
2022-09-10T00:08:42.152Z,18.02
2022-09-10T00:11:32.246Z,17.85
2022-09-10T00:14:21.086Z,21.05
2022-09-10T00:17:07.567Z,13.15
2022-09-10T00:19:55.122Z,14.73
2022-09-10T00:22:41.609Z,21.60
2022-09-10T00:25:30.690Z,17.60
2022-09-10T00:28:16.544Z,14.93
2022-09-10T00:31:03.647Z,23.73
2022-09-10T00:33:50.482Z,16.23
2022-09-10T00:36:41.803Z,15.57
2022-09-10T00:39:28.059Z,20.65
2022-09-10T00:42:13.777Z,18.48
2022-09-10T00:45:02.316Z,12.60
2022-09-10T00:47:50.427Z,18.08
2022-09-10T00:50:39.509Z,15.55
2022-09-10T00:53:27.543Z,19.65
2022-09-10T00:56:14.377Z,15.65
2022-09-10T00:59:01.363Z,19.67
2022-09-10T01:01:48.004Z,16.25
2022-09-10T01:04:34.242Z,17.05
2022-09-10T01:07:21.486Z,19.60
2022-09-10T01:10:15.146Z,19.35
2022-09-10T01:13:42.826Z,23.42
2022-09-10T01:16:40.425Z,18.05
2022-09-10T01:19:50.208Z,17.40
2022-09-10T01:23:00.362Z,21.20
2022-09-10T01:25:58.575Z,19.65
2022-09-10T01:29:06.253Z,19.67
2022-09-10T01:32:01.683Z,18.80
2022-09-10T01:34:54.358Z,19.27
2022-09-10T01:37:43.244Z,18.17
2022-09-10T01:40:30.100Z,23.08
2022-09-10T01:43:23.329Z,15.98
2022-09-10T01:46:34.956Z,19.10
2022-09-10T01:49:27.860Z,16.50
2022-09-10T01:52:25.323Z,17.75
2022-09-10T01:55:22.483Z,22.65
2022-09-10T01:58:30.405Z,20.80
2022-09-10T02:01:45.798Z,19.23
2022-09-10T02:04:32.230Z,14.82
2022-09-10T02:07:22.439Z,17.05
2022-09-10T02:10:10.518Z,16.10
2022-09-10T02:13:03.984Z,15.57
2022-09-10T02:16:37.836Z,15.40
2022-09-10T02:19:26.542Z,20.10
2022-09-10T02:22:12.616Z,17.25
2022-09-10T02:24:58.756Z,14.88
2022-09-10T02:27:44.901Z,15.75
2022-09-10T02:30:30.984Z,16.95
2022-09-10T02:33:16.976Z,21.15
2022-09-10T02:36:04.189Z,22.67
2022-09-10T02:38:57.041Z,17.02
2022-09-10T02:41:45.580Z,20.48
2022-09-10T02:44:32.118Z,14.98
2022-09-10T02:47:20.363Z,14.50
2022-09-10T02:50:07.913Z,18.75
2022-09-10T02:52:55.539Z,15.88
2022-09-10T02:55:46.262Z,16.52
2022-09-10T02:58:34.227Z,17.30
2022-09-10T03:01:22.998Z,16.55
2022-09-10T03:04:16.918Z,22.23
2022-09-10T03:07:05.042Z,16.60
2022-09-10T03:09:53.401Z,17.70
2022-09-10T03:12:39.403Z,17.85
2022-09-10T03:15:25.698Z,18.40
2022-09-10T03:18:11.503Z,20.15
2022-09-10T03:21:18.338Z,17.20
2022-09-10T03:24:05.331Z,17.13
2022-09-10T03:26:51.662Z,27.15
2022-09-10T03:29:39.933Z,16.08
2022-09-10T03:32:25.685Z,20.38
2022-09-10T03:35:13.748Z,18.17
2022-09-10T03:37:59.590Z,19.55
2022-09-10T03:40:45.438Z,17.98
2022-09-10T03:43:31.554Z,20.05
2022-09-10T03:46:17.992Z,21.05
2022-09-10T03:49:07.095Z,17.25
2022-09-10T03:51:54.734Z,21.33
2022-09-10T03:54:42.941Z,21.60
2022-09-10T03:57:28.833Z,18.23
2022-09-10T04:00:15.077Z,20.83
2022-09-10T04:03:01.698Z,19.58
2022-09-10T04:05:47.560Z,21.60
2022-09-10T04:08:33.788Z,23.13
2022-09-10T04:11:20.417Z,25.38
2022-09-10T04:14:07.893Z,21.10
2022-09-10T04:16:58.982Z,20.52
2022-09-10T04:19:45.941Z,19.73
2022-09-10T04:22:34.558Z,20.83
2022-09-10T04:25:21.238Z,17.65
2022-09-10T04:28:07.814Z,17.08
2022-09-10T04:30:53.576Z,19.30
2022-09-10T04:33:42.660Z,19.58
2022-09-10T04:36:29.362Z,17.00
2022-09-10T04:39:16.728Z,21.52
2022-09-10T04:42:03.278Z,23.63
2022-09-10T04:44:49.829Z,22.30
2022-09-10T04:47:36.500Z,24.77
2022-09-10T04:50:22.910Z,23.83
2022-09-10T04:53:34.451Z,18.10
2022-09-10T04:56:21.362Z,20.67
2022-09-10T04:59:07.980Z,18.95
2022-09-10T05:01:56.154Z,23.65
2022-09-10T05:04:42.467Z,20.50
2022-09-10T05:07:28.370Z,16.48
2022-09-10T05:10:15.379Z,17.40
2022-09-10T05:13:01.786Z,17.25
2022-09-10T05:15:48.206Z,19.70
2022-09-10T05:18:35.227Z,21.00
2022-09-10T05:21:22.671Z,20.95
2022-09-10T05:24:11.164Z,21.23
2022-09-10T05:26:57.135Z,16.95
2022-09-10T05:29:43.384Z,16.42
2022-09-10T05:32:31.423Z,21.98
2022-09-10T05:35:18.019Z,22.63
2022-09-10T05:38:05.677Z,22.27
2022-09-10T05:40:57.117Z,16.95
2022-09-10T05:43:42.820Z,21.98
2022-09-10T05:46:29.777Z,23.10
2022-09-10T05:49:19.812Z,20.65
2022-09-10T05:52:06.368Z,21.38
2022-09-10T05:54:56.173Z,23.83
2022-09-10T05:57:42.295Z,20.15
2022-09-10T06:00:31.973Z,24.38
2022-09-10T06:03:20.399Z,22.17
2022-09-10T06:06:09.576Z,24.52
2022-09-10T06:08:57.234Z,22.92
2022-09-10T06:12:02.220Z,20.42
2022-09-10T06:14:52.724Z,21.20
2022-09-10T06:17:40.224Z,26.77
2022-09-10T06:20:26.296Z,25.02
2022-09-10T06:23:12.176Z,22.95
2022-09-10T06:26:04.265Z,24.35
2022-09-10T06:28:51.565Z,24.05
2022-09-10T06:31:37.641Z,20.58
2022-09-10T06:34:26.497Z,16.90
2022-09-10T06:37:13.308Z,20.92
2022-09-10T06:39:59.252Z,16.08
2022-09-10T06:42:45.338Z,17.20
2022-09-10T06:45:31.369Z,17.20
2022-09-10T06:48:43.296Z,16.90
2022-09-10T06:51:33.645Z,15.90
2022-09-10T06:54:21.464Z,13.95
2022-09-10T06:57:07.413Z,14.50
2022-09-10T06:59:53.932Z,12.68
2022-09-10T07:02:41.017Z,20.40
2022-09-10T07:05:29.471Z,28.13
2022-09-10T07:08:17.598Z,22.92
2022-09-10T07:11:19.723Z,16.13
2022-09-10T07:14:07.026Z,15.82
2022-09-10T07:16:55.511Z,12.60
2022-09-10T07:19:43.831Z,11.45
2022-09-10T07:22:43.869Z,14.02
2022-09-10T07:25:34.109Z,13.30
2022-09-10T07:28:23.600Z,15.38
2022-09-10T07:31:15.030Z,11.27
2022-09-10T07:34:03.317Z,12.02
2022-09-10T07:36:49.576Z,10.35
2022-09-10T07:39:38.053Z,15.38
2022-09-10T07:42:25.517Z,15.07
2022-09-10T07:45:16.265Z,13.15
2022-09-10T07:48:03.477Z,12.20
2022-09-10T07:50:53.615Z,6.55
2022-09-10T07:53:47.550Z,10.27
2022-09-10T07:56:37.909Z,8.25
2022-09-10T07:59:26.819Z,8.05
2022-09-10T08:02:17.255Z,12.15
2022-09-10T08:05:11.874Z,11.57
2022-09-10T08:07:58.632Z,11.77
2022-09-10T08:10:46.956Z,8.73
2022-09-10T08:13:36.603Z,14.30
2022-09-10T08:16:24.398Z,10.63
2022-09-10T08:19:14.947Z,17.58
2022-09-10T08:22:00.881Z,21.75
2022-09-10T08:24:51.849Z,19.88
2022-09-10T08:27:38.626Z,11.75
2022-09-10T08:30:28.850Z,12.48
2022-09-10T08:33:15.476Z,10.65
2022-09-10T08:36:02.759Z,12.05
2022-09-10T08:38:50.396Z,33.13
2022-09-10T08:41:52.674Z,13.68
2022-09-10T08:44:51.031Z,12.20
2022-09-10T08:47:43.935Z,21.25
2022-09-10T08:50:40.343Z,22.48
2022-09-10T08:53:43.817Z,10.32
2022-09-10T08:56:33.077Z,11.68
2022-09-10T08:59:26.721Z,9.38
2022-09-10T09:02:47.860Z,13.98
2022-09-10T09:05:45.577Z,9.68
2022-09-10T09:08:35.059Z,11.93
2022-09-10T09:11:45.755Z,12.00
2022-09-10T09:14:36.082Z,9.90
2022-09-10T09:17:51.740Z,12.40
2022-09-10T09:20:47.213Z,13.05
2022-09-10T09:24:13.064Z,10.95
2022-09-10T09:27:10.435Z,11.07
2022-09-10T09:30:06.333Z,8.85
2022-09-10T09:33:02.077Z,8.20
2022-09-10T09:35:59.579Z,8.30
2022-09-10T09:38:49.173Z,6.13
2022-09-10T09:41:47.528Z,8.77
2022-09-10T09:44:43.869Z,7.28
2022-09-10T09:47:30.366Z,13.48
2022-09-10T09:50:18.575Z,9.00
2022-09-10T09:53:05.011Z,10.18
2022-09-10T09:55:57.556Z,10.35
2022-09-10T10:01:33.379Z,7.38
2022-09-10T10:04:22.681Z,5.88
2022-09-10T10:07:08.561Z,9.93
2022-09-10T10:09:54.423Z,7.00
2022-09-10T10:12:49.037Z,15.10
2022-09-10T10:15:38.887Z,10.77
2022-09-10T10:18:31.833Z,14.52
2022-09-10T10:21:20.485Z,10.95
2022-09-10T10:24:30.543Z,9.93
2022-09-10T10:27:19.300Z,8.45
2022-09-10T10:30:11.653Z,9.90
2022-09-10T10:33:03.289Z,8.27
2022-09-10T10:35:54.842Z,7.85
2022-09-10T10:38:44.595Z,6.57
2022-09-10T10:41:46.888Z,8.40
2022-09-10T10:44:41.833Z,9.10
2022-09-10T10:47:52.689Z,8.07
2022-09-10T10:50:42.851Z,8.07
2022-09-10T10:53:37.995Z,8.95
2022-09-10T10:56:43.151Z,11.05
2022-09-10T10:59:40.197Z,12.50
2022-09-10T11:02:36.162Z,7.65
2022-09-10T11:05:31.800Z,8.57
2022-09-10T11:08:27.504Z,7.72
2022-09-10T11:11:49.036Z,10.82
2022-09-10T11:14:44.670Z,7.47
2022-09-10T11:17:38.606Z,5.95
2022-09-10T11:21:00.349Z,13.23
2022-09-10T11:23:56.961Z,12.82
2022-09-10T11:27:19.034Z,6.93
2022-09-10T11:30:16.507Z,14.63
2022-09-10T11:33:15.069Z,8.30
2022-09-10T11:36:25.357Z,7.75
2022-09-10T11:39:19.396Z,9.48
2022-09-10T11:42:23.656Z,8.27
2022-09-10T11:45:43.090Z,9.95
2022-09-10T11:48:50.186Z,10.20
2022-09-10T11:51:37.323Z,8.35
2022-09-10T11:54:29.799Z,11.20
2022-09-10T11:57:36.005Z,8.60
2022-09-10T12:00:24.139Z,10.32
2022-09-10T12:03:28.914Z,13.50
2022-09-10T12:06:23.566Z,14.55
2022-09-10T12:09:44.840Z,11.90
2022-09-10T12:12:37.820Z,16.83
2022-09-10T12:15:34.017Z,11.60
2022-09-10T12:18:23.617Z,10.32
2022-09-10T12:21:25.396Z,14.35
2022-09-10T12:24:33.725Z,8.10
2022-09-10T12:27:20.256Z,6.93
2022-09-10T12:30:25.074Z,13.88
2022-09-10T12:33:17.157Z,7.40
2022-09-10T12:36:03.729Z,10.48
2022-09-10T12:39:21.700Z,8.25
2022-09-10T12:42:27.469Z,6.68
2022-09-10T12:45:13.505Z,5.47
2022-09-10T12:47:59.477Z,9.77
2022-09-10T12:50:52.975Z,6.90
2022-09-10T12:54:00.513Z,9.75
2022-09-10T12:57:24.568Z,9.40
2022-09-10T13:00:23.400Z,4.28
2022-09-10T13:03:17.749Z,9.93
2022-09-10T13:06:05.363Z,11.10
2022-09-10T13:08:51.535Z,10.68
2022-09-10T13:11:37.572Z,12.02
2022-09-10T13:14:27.706Z,3.65
2022-09-10T13:17:59.743Z,7.95
2022-09-10T13:20:45.722Z,10.20
2022-09-10T13:23:48.065Z,7.70
2022-09-10T13:26:47.296Z,8.75
2022-09-10T13:29:36.542Z,8.52
2022-09-10T13:32:30.104Z,8.13
2022-09-10T13:35:21.952Z,7.95
2022-09-10T13:38:14.307Z,8.75
2022-09-10T13:44:17.856Z,11.05
2022-09-10T13:47:10.329Z,6.18
2022-09-10T13:52:45.373Z,7.88
2022-09-10T13:55:32.134Z,6.28
2022-09-10T13:58:21.596Z,9.27
2022-09-10T14:01:07.500Z,17.83
2022-09-10T14:03:53.448Z,11.50
2022-09-10T14:06:39.600Z,7.25
2022-09-10T14:09:26.536Z,9.70
2022-09-10T14:12:13.925Z,8.23
2022-09-10T14:15:03.973Z,8.57
2022-09-10T14:17:54.392Z,12.13
2022-09-10T14:20:40.704Z,8.30
2022-09-10T14:23:27.028Z,12.00
2022-09-10T14:26:17.377Z,11.88
2022-09-10T14:29:23.233Z,11.27
2022-09-10T14:32:26.497Z,7.40
2022-09-10T14:35:34.657Z,8.43
2022-09-10T14:38:24.599Z,11.38
2022-09-10T14:41:19.879Z,5.30
2022-09-10T14:44:24.118Z,4.20
2022-09-10T14:47:10.752Z,6.82
2022-09-10T14:50:31.064Z,9.93
2022-09-10T14:53:17.394Z,7.07
2022-09-10T14:56:05.377Z,8.23
2022-09-10T14:59:06.488Z,8.27
2022-09-10T15:01:53.708Z,5.70
2022-09-10T15:04:39.838Z,8.07
2022-09-10T15:07:27.866Z,10.73
2022-09-10T15:10:14.553Z,10.63
2022-09-10T15:13:00.715Z,5.40
2022-09-10T15:15:46.703Z,3.85
2022-09-10T15:18:32.608Z,6.40
2022-09-10T15:21:18.683Z,8.73
2022-09-10T15:24:06.000Z,7.07
2022-09-10T15:26:52.575Z,9.15
2022-09-10T15:29:39.262Z,7.63
2022-09-10T15:32:25.377Z,7.50
2022-09-10T15:35:11.544Z,5.65
2022-09-10T15:37:58.031Z,6.18
2022-09-10T15:40:44.547Z,5.32
2022-09-10T15:43:34.218Z,3.60
2022-09-10T15:46:24.277Z,6.10
2022-09-10T15:49:10.368Z,4.80
2022-09-10T15:51:57.309Z,7.38
2022-09-10T15:54:43.880Z,6.25
2022-09-10T15:57:31.096Z,4.95
2022-09-10T16:00:18.486Z,7.80
2022-09-10T16:03:04.649Z,6.15
2022-09-10T16:05:50.719Z,5.80
2022-09-10T16:08:36.828Z,10.48
2022-09-10T16:11:24.793Z,8.05
2022-09-10T16:14:17.060Z,5.07
2022-09-10T16:17:13.787Z,7.63
2022-09-10T16:20:02.193Z,7.25
2022-09-10T16:22:48.455Z,7.32
2022-09-10T16:25:34.302Z,5.30
2022-09-10T16:28:21.025Z,7.55
2022-09-10T16:31:16.483Z,6.70
2022-09-10T16:34:05.053Z,5.45
2022-09-10T16:36:51.446Z,5.15
2022-09-10T16:39:37.290Z,4.28
2022-09-10T16:42:23.274Z,9.50
2022-09-10T16:45:09.436Z,5.68
2022-09-10T16:47:55.425Z,12.43
2022-09-10T16:50:41.547Z,5.10
2022-09-10T16:53:27.446Z,3.38
2022-09-10T16:56:15.495Z,6.30
2022-09-10T16:59:02.045Z,4.18
2022-09-10T17:01:49.459Z,7.63
2022-09-10T17:04:35.919Z,4.35
2022-09-10T17:07:22.120Z,6.53
2022-09-10T17:10:08.454Z,6.50
2022-09-10T17:12:54.409Z,9.50
2022-09-10T17:15:40.749Z,9.48
2022-09-10T17:18:26.733Z,4.85
2022-09-10T17:21:13.365Z,5.18
2022-09-10T17:23:59.990Z,4.95
2022-09-10T17:26:46.133Z,8.07
2022-09-10T17:29:32.952Z,6.32
2022-09-10T17:32:19.252Z,5.47
2022-09-10T17:35:05.860Z,8.07
2022-09-10T17:37:52.143Z,6.72
2022-09-10T17:40:38.498Z,12.40
2022-09-10T17:43:29.415Z,9.77
2022-09-10T17:46:22.518Z,8.15
2022-09-10T17:49:09.500Z,7.63
2022-09-10T17:51:55.931Z,6.43
2022-09-10T17:54:42.310Z,7.22
2022-09-10T17:57:28.812Z,5.30
2022-09-10T18:00:15.097Z,5.85
2022-09-10T18:03:01.350Z,6.63
2022-09-10T18:05:48.655Z,6.95
2022-09-10T18:08:36.037Z,8.15
2022-09-10T18:11:24.382Z,8.95
2022-09-10T18:14:18.588Z,8.32
2022-09-10T18:17:04.724Z,7.30
2022-09-10T18:19:50.986Z,9.65
2022-09-10T18:22:38.227Z,8.90
2022-09-10T18:25:27.068Z,10.20
2022-09-10T18:28:13.172Z,10.57
2022-09-10T18:31:03.073Z,12.20
2022-09-10T18:33:49.095Z,9.80
2022-09-10T18:36:35.569Z,6.55
2022-09-10T18:39:22.986Z,10.68
2022-09-10T18:42:09.440Z,10.50
2022-09-10T18:44:55.488Z,11.43
2022-09-10T18:47:45.026Z,12.30
2022-09-10T18:50:32.680Z,13.13
2022-09-10T18:53:18.715Z,10.50
2022-09-10T18:56:10.000Z,11.40
2022-09-10T18:59:00.503Z,11.50
2022-09-10T19:01:47.303Z,15.45
2022-09-10T19:04:44.899Z,13.65
2022-09-10T19:07:39.536Z,13.60
2022-09-10T19:10:25.726Z,11.25
2022-09-10T19:13:12.358Z,15.73
2022-09-10T19:16:00.948Z,22.48
2022-09-10T19:18:51.748Z,18.42
2022-09-10T19:21:38.407Z,11.13
2022-09-10T19:24:37.671Z,12.07
2022-09-10T19:27:24.636Z,12.73
2022-09-10T19:30:11.316Z,10.35
2022-09-10T19:32:57.503Z,14.48
2022-09-10T19:35:44.277Z,11.57
2022-09-10T19:38:46.696Z,13.43
2022-09-10T19:44:20.221Z,17.35
2022-09-10T19:47:06.470Z,15.93
2022-09-10T19:49:53.027Z,17.05
2022-09-10T19:52:39.062Z,12.60
2022-09-10T19:55:27.055Z,13.98
2022-09-10T19:58:13.579Z,11.30
2022-09-10T20:00:59.702Z,11.07
2022-09-10T20:03:46.077Z,20.38
2022-09-10T20:06:33.283Z,14.13
2022-09-10T20:09:19.325Z,13.60
2022-09-10T20:12:05.838Z,17.13
2022-09-10T20:14:52.484Z,14.18
2022-09-10T20:17:39.071Z,11.88
2022-09-10T20:20:25.041Z,10.75
2022-09-10T20:23:11.009Z,11.88
2022-09-10T20:25:56.899Z,11.65
2022-09-10T20:28:53.355Z,10.90
2022-09-10T20:31:47.797Z,10.52
2022-09-10T20:34:35.302Z,15.75
2022-09-10T20:37:22.257Z,10.75
2022-09-10T20:40:08.818Z,10.52
2022-09-10T20:42:54.925Z,13.63
2022-09-10T20:45:44.042Z,13.90
2022-09-10T20:48:31.199Z,11.45
2022-09-10T20:51:21.360Z,16.85
2022-09-10T20:54:09.959Z,18.63
2022-09-10T20:56:56.613Z,10.48
2022-09-10T20:59:44.141Z,16.33
2022-09-10T21:02:30.166Z,12.98
2022-09-10T21:05:15.975Z,10.65
2022-09-10T21:08:02.749Z,10.40
2022-09-10T21:10:49.121Z,14.73
2022-09-10T21:13:36.446Z,14.57
2022-09-10T21:16:24.568Z,14.73
2022-09-10T21:19:16.113Z,15.48
2022-09-10T21:22:02.894Z,12.47
2022-09-10T21:24:48.788Z,14.07
2022-09-10T21:27:34.903Z,13.63
2022-09-10T21:30:20.866Z,12.40
2022-09-10T21:33:07.199Z,15.75
2022-09-10T21:36:02.676Z,14.23
2022-09-10T21:38:54.685Z,15.43
2022-09-10T21:41:44.044Z,11.30
2022-09-10T21:44:32.244Z,11.35
2022-09-10T21:47:18.203Z,12.70
2022-09-10T21:50:04.292Z,10.77
2022-09-10T21:52:50.376Z,14.65
2022-09-10T21:55:36.223Z,13.80
2022-09-10T21:58:22.059Z,11.48
2022-09-10T22:01:19.680Z,11.75
2022-09-10T22:04:05.673Z,10.50
2022-09-10T22:06:53.982Z,9.88
2022-09-10T22:09:40.092Z,16.38
2022-09-10T22:12:25.997Z,12.82
2022-09-10T22:15:12.272Z,11.02
2022-09-10T22:17:58.040Z,13.30
2022-09-10T22:20:43.973Z,9.13
2022-09-10T22:23:32.387Z,10.85
2022-09-10T22:26:20.641Z,20.15
2022-09-10T22:29:06.475Z,14.77
2022-09-10T22:31:52.384Z,13.45
2022-09-10T22:34:39.030Z,14.85
2022-09-10T22:37:25.203Z,18.08
2022-09-10T22:40:11.591Z,13.38
2022-09-10T22:42:58.850Z,12.82
2022-09-10T22:45:44.616Z,10.00
2022-09-10T22:48:30.750Z,12.05
2022-09-10T22:51:29.171Z,12.95
2022-09-10T22:54:17.999Z,11.23
2022-09-10T22:57:06.292Z,19.50
2022-09-10T22:59:53.737Z,14.15
2022-09-10T23:02:41.516Z,16.70
2022-09-10T23:05:28.881Z,12.52
2022-09-10T23:08:22.241Z,12.50
2022-09-10T23:11:36.362Z,14.70
2022-09-10T23:14:27.258Z,12.07
2022-09-10T23:17:20.715Z,9.52
2022-09-10T23:20:10.581Z,10.05
2022-09-10T23:23:01.227Z,10.52
2022-09-10T23:25:49.503Z,9.90
2022-09-10T23:28:38.133Z,12.32
2022-09-10T23:31:30.470Z,13.40
2022-09-10T23:34:20.033Z,13.48
2022-09-10T23:37:10.432Z,8.98
2022-09-10T23:39:57.321Z,11.27
2022-09-10T23:42:48.514Z,9.00
2022-09-10T23:45:35.634Z,13.32
2022-09-10T23:48:24.979Z,8.18
2022-09-10T23:51:20.171Z,15.07
2022-09-10T23:54:09.430Z,8.82
2022-09-10T23:56:57.956Z,15.57
2022-09-10T23:59:49.240Z,13.32
